sensor_id;sensor_type;location;lat;lon;timestamp;pressure;altitude;pressure_sealevel;temperature;humidity
12666;BME280;58531;59.050;17.416;2023-04-07T00:00:23;102022.78;;;0.46;100.00
12666;BME280;58531;59.050;17.416;2023-04-07T00:02:50;102033.72;;;0.48;100.00
12666;BME280;58531;59.050;17.416;2023-04-07T00:05:17;102028.91;;;0.50;100.00
12666;BME280;58531;59.050;17.416;2023-04-07T00:07:45;102033.41;;;0.50;100.00
12666;BME280;58531;59.050;17.416;2023-04-07T00:10:12;102031.88;;;0.49;100.00
12666;BME280;58531;59.050;17.416;2023-04-07T00:12:39;102026.28;;;0.50;100.00
12666;BME280;58531;59.050;17.416;2023-04-07T00:15:06;102026.28;;;0.50;100.00
12666;BME280;58531;59.050;17.416;2023-04-07T00:17:33;102026.94;;;0.47;100.00
12666;BME280;58531;59.050;17.416;2023-04-07T00:20:00;102021.03;;;0.50;100.00
12666;BME280;58531;59.050;17.416;2023-04-07T00:22:27;102025.19;;;0.51;100.00
12666;BME280;58531;59.050;17.416;2023-04-07T00:24:55;102018.41;;;0.50;100.00
12666;BME280;58531;59.050;17.416;2023-04-07T00:27:22;102021.03;;;0.50;100.00
12666;BME280;58531;59.050;17.416;2023-04-07T00:29:49;102021.81;;;0.51;100.00
12666;BME280;58531;59.050;17.416;2023-04-07T00:32:15;102025.19;;;0.51;100.00
12666;BME280;58531;59.050;17.416;2023-04-07T00:34:42;102009.00;;;0.49;100.00
12666;BME280;58531;59.050;17.416;2023-04-07T00:37:09;102021.03;;;0.50;100.00
12666;BME280;58531;59.050;17.416;2023-04-07T00:39:36;102017.66;;;0.50;100.00
12666;BME280;58531;59.050;17.416;2023-04-07T00:42:04;102018.50;;;0.54;100.00
12666;BME280;58531;59.050;17.416;2023-04-07T00:44:31;102018.06;;;0.52;100.00
12666;BME280;58531;59.050;17.416;2023-04-07T00:46:58;102009.00;;;0.49;100.00
12666;BME280;58531;59.050;17.416;2023-04-07T00:49:26;102011.19;;;0.47;100.00
12666;BME280;58531;59.050;17.416;2023-04-07T00:51:54;102011.19;;;0.47;100.00
12666;BME280;58531;59.050;17.416;2023-04-07T00:54:22;102011.63;;;0.49;100.00
12666;BME280;58531;59.050;17.416;2023-04-07T00:56:49;102013.16;;;0.50;100.00
12666;BME280;58531;59.050;17.416;2023-04-07T00:59:18;102004.50;;;0.50;100.00
12666;BME280;58531;59.050;17.416;2023-04-07T01:01:54;102006.03;;;0.51;100.00
12666;BME280;58531;59.050;17.416;2023-04-07T01:04:28;102004.91;;;0.52;100.00
12666;BME280;58531;59.050;17.416;2023-04-07T01:07:03;102009.41;;;0.51;100.00
12666;BME280;58531;59.050;17.416;2023-04-07T01:09:36;102001.75;;;0.46;100.00
12666;BME280;58531;59.050;17.416;2023-04-07T01:12:11;102001.34;;;0.44;100.00
12666;BME280;58531;59.050;17.416;2023-04-07T01:14:50;101998.38;;;0.46;100.00
12666;BME280;58531;59.050;17.416;2023-04-07T01:17:20;102001.44;;;0.48;100.00
12666;BME280;58531;59.050;17.416;2023-04-07T01:19:52;102001.09;;;0.49;100.00
12666;BME280;58531;59.050;17.416;2023-04-07T01:22:25;102000.22;;;0.45;100.00
12666;BME280;58531;59.050;17.416;2023-04-07T01:25:17;102001.00;;;0.46;100.00
12666;BME280;58531;59.050;17.416;2023-04-07T01:27:55;102008.13;;;0.45;100.00
12666;BME280;58531;59.050;17.416;2023-04-07T01:30:27;101997.28;;;0.47;100.00
12666;BME280;58531;59.050;17.416;2023-04-07T01:32:57;102002.63;;;0.50;100.00
12666;BME280;58531;59.050;17.416;2023-04-07T01:35:25;102006.03;;;0.51;100.00
12666;BME280;58531;59.050;17.416;2023-04-07T01:37:53;102011.84;;;0.44;100.00
12666;BME280;58531;59.050;17.416;2023-04-07T01:40:21;101994.53;;;0.43;100.00
12666;BME280;58531;59.050;17.416;2023-04-07T01:42:48;101990.06;;;0.44;100.00
12666;BME280;58531;59.050;17.416;2023-04-07T01:45:17;101994.53;;;0.43;100.00
12666;BME280;58531;59.050;17.416;2023-04-07T01:47:45;101997.94;;;0.44;100.00
12666;BME280;58531;59.050;17.416;2023-04-07T01:50:13;101999.72;;;0.40;100.00
12666;BME280;58531;59.050;17.416;2023-04-07T01:52:41;101999.38;;;0.41;100.00
12666;BME280;58531;59.050;17.416;2023-04-07T01:55:09;102002.66;;;0.38;100.00
12666;BME280;58531;59.050;17.416;2023-04-07T01:57:36;102000.47;;;0.40;100.00
12666;BME280;58531;59.050;17.416;2023-04-07T02:00:03;101998.28;;;0.42;100.00
12666;BME280;58531;59.050;17.416;2023-04-07T02:02:32;101992.25;;;0.42;100.00
12666;BME280;58531;59.050;17.416;2023-04-07T02:05:05;101997.09;;;0.40;100.00
12666;BME280;58531;59.050;17.416;2023-04-07T02:07:39;101992.59;;;0.40;100.00
12666;BME280;58531;59.050;17.416;2023-04-07T02:10:10;101996.75;;;0.41;100.00
12666;BME280;58531;59.050;17.416;2023-04-07T02:12:38;101990.63;;;0.37;100.00
12666;BME280;58531;59.050;17.416;2023-04-07T02:15:07;101992.81;;;0.35;100.00
12666;BME280;58531;59.050;17.416;2023-04-07T02:17:38;101998.50;;;0.37;100.00
12666;BME280;58531;59.050;17.416;2023-04-07T02:20:07;101991.84;;;0.40;100.00
12666;BME280;58531;59.050;17.416;2023-04-07T02:22:36;101995.88;;;0.37;100.00
12666;BME280;58531;59.050;17.416;2023-04-07T02:25:20;101996.97;;;0.36;100.00
12666;BME280;58531;59.050;17.416;2023-04-07T02:27:47;101998.84;;;0.36;100.00
12666;BME280;58531;59.050;17.416;2023-04-07T02:30:14;101997.41;;;0.38;100.00
12666;BME280;58531;59.050;17.416;2023-04-07T02:32:41;102006.38;;;0.37;100.00
12666;BME280;58531;59.050;17.416;2023-04-07T02:35:09;102000.03;;;0.38;100.00
12666;BME280;58531;59.050;17.416;2023-04-07T02:37:36;102002.66;;;0.38;100.00
12666;BME280;58531;59.050;17.416;2023-04-07T02:40:04;102001.25;;;0.41;100.00
12666;BME280;58531;59.050;17.416;2023-04-07T02:42:31;102000.47;;;0.40;100.00
12666;BME280;58531;59.050;17.416;2023-04-07T02:44:57;102000.47;;;0.40;100.00
12666;BME280;58531;59.050;17.416;2023-04-07T02:47:25;101998.94;;;0.39;100.00
12666;BME280;58531;59.050;17.416;2023-04-07T02:49:51;101995.22;;;0.40;100.00
12666;BME280;58531;59.050;17.416;2023-04-07T02:52:20;101997.41;;;0.38;100.00
12666;BME280;58531;59.050;17.416;2023-04-07T02:54:46;101998.84;;;0.36;100.00
12666;BME280;58531;59.050;17.416;2023-04-07T02:57:13;101997.31;;;0.35;100.00
12666;BME280;58531;59.050;17.416;2023-04-07T02:59:40;101992.06;;;0.35;100.00
12666;BME280;58531;59.050;17.416;2023-04-07T03:02:07;101990.97;;;0.36;100.00
12666;BME280;58531;59.050;17.416;2023-04-07T03:04:34;101994.34;;;0.36;100.00
12666;BME280;58531;59.050;17.416;2023-04-07T03:07:00;102001.13;;;0.37;100.00
12666;BME280;58531;59.050;17.416;2023-04-07T03:09:29;102005.94;;;0.35;100.00
12666;BME280;58531;59.050;17.416;2023-04-07T03:11:55;102010.09;;;0.36;100.00
12666;BME280;58531;59.050;17.416;2023-04-07T03:14:22;102000.38;;;0.37;100.00
12666;BME280;58531;59.050;17.416;2023-04-07T03:16:49;102009.34;;;0.36;100.00
12666;BME280;58531;59.050;17.416;2023-04-07T03:19:16;101992.81;;;0.35;100.00
12666;BME280;58531;59.050;17.416;2023-04-07T03:21:43;101996.53;;;0.34;100.00
12666;BME280;58531;59.050;17.416;2023-04-07T03:24:09;101997.31;;;0.35;100.00
12666;BME280;58531;59.050;17.416;2023-04-07T03:26:38;102008.69;;;0.39;100.00
12666;BME280;58531;59.050;17.416;2023-04-07T03:29:04;102012.06;;;0.39;100.00
12666;BME280;58531;59.050;17.416;2023-04-07T03:31:31;102009.00;;;0.37;100.00
12666;BME280;58531;59.050;17.416;2023-04-07T03:33:58;102006.06;;;0.39;100.00
12666;BME280;58531;59.050;17.416;2023-04-07T03:36:25;102011.53;;;0.34;100.00
12666;BME280;58531;59.050;17.416;2023-04-07T03:38:52;102004.09;;;0.36;100.00
12666;BME280;58531;59.050;17.416;2023-04-07T03:41:19;102000.69;;;0.35;100.00
12666;BME280;58531;59.050;17.416;2023-04-07T03:43:47;102002.88;;;0.33;100.00
12666;BME280;58531;59.050;17.416;2023-04-07T03:46:14;102002.88;;;0.33;100.00
12666;BME280;58531;59.050;17.416;2023-04-07T03:48:41;102009.34;;;0.36;100.00
12666;BME280;58531;59.050;17.416;2023-04-07T03:51:08;102008.47;;;0.32;100.00
12666;BME280;58531;59.050;17.416;2023-04-07T03:53:35;102005.94;;;0.35;100.00
12666;BME280;58531;59.050;17.416;2023-04-07T03:56:02;102007.16;;;0.38;100.00
12666;BME280;58531;59.050;17.416;2023-04-07T03:58:29;102006.81;;;0.39;100.00
12666;BME280;58531;59.050;17.416;2023-04-07T04:00:57;102007.16;;;0.38;100.00
12666;BME280;58531;59.050;17.416;2023-04-07T04:03:24;102016.88;;;0.37;100.00
12666;BME280;58531;59.050;17.416;2023-04-07T04:05:51;102010.31;;;0.43;100.00
12666;BME280;58531;59.050;17.416;2023-04-07T04:08:19;102021.59;;;0.44;100.00
12666;BME280;58531;59.050;17.416;2023-04-07T04:10:45;102024.53;;;0.42;100.00
12666;BME280;58531;59.050;17.416;2023-04-07T04:13:12;102025.41;;;0.46;100.00
12666;BME280;58531;59.050;17.416;2023-04-07T04:15:39;102029.13;;;0.45;100.00
12666;BME280;58531;59.050;17.416;2023-04-07T04:18:07;102025.75;;;0.45;100.00
12666;BME280;58531;59.050;17.416;2023-04-07T04:20:34;102031.53;;;0.50;100.00
12666;BME280;58531;59.050;17.416;2023-04-07T04:23:01;102039.44;;;0.50;100.00
12666;BME280;58531;59.050;17.416;2023-04-07T04:25:28;102039.44;;;0.50;100.00
12666;BME280;58531;59.050;17.416;2023-04-07T04:27:55;102036.78;;;0.50;100.00
12666;BME280;58531;59.050;17.416;2023-04-07T04:30:22;102039.00;;;0.48;100.00
12666;BME280;58531;59.050;17.416;2023-04-07T04:32:49;102036.78;;;0.50;100.00
12666;BME280;58531;59.050;17.416;2023-04-07T04:35:17;102048.50;;;0.53;100.00
12666;BME280;58531;59.050;17.416;2023-04-07T04:37:44;102048.19;;;0.54;100.00
12666;BME280;58531;59.050;17.416;2023-04-07T04:40:11;102054.97;;;0.55;100.00
12666;BME280;58531;59.050;17.416;2023-04-07T04:42:38;102046.28;;;0.55;100.00
12666;BME280;58531;59.050;17.416;2023-04-07T04:45:06;102052.78;;;0.57;100.00
12666;BME280;58531;59.050;17.416;2023-04-07T04:47:33;102053.19;;;0.59;100.00
12666;BME280;58531;59.050;17.416;2023-04-07T04:50:00;102054.75;;;0.60;100.00
12666;BME280;58531;59.050;17.416;2023-04-07T04:52:28;102056.69;;;0.63;100.00
12666;BME280;58531;59.050;17.416;2023-04-07T04:54:55;102058.97;;;0.65;100.00
12666;BME280;58531;59.050;17.416;2023-04-07T04:57:22;102064.16;;;0.61;100.00
12666;BME280;58531;59.050;17.416;2023-04-07T04:59:49;102062.72;;;0.64;100.00
12666;BME280;58531;59.050;17.416;2023-04-07T05:02:16;102061.97;;;0.63;100.00
12666;BME280;58531;59.050;17.416;2023-04-07T05:04:43;102060.19;;;0.67;100.00
12666;BME280;58531;59.050;17.416;2023-04-07T05:07:09;102066.75;;;0.73;100.00
12666;BME280;58531;59.050;17.416;2023-04-07T05:09:38;102064.34;;;0.68;100.00
12666;BME280;58531;59.050;17.416;2023-04-07T05:12:05;102062.81;;;0.67;100.00
12666;BME280;58531;59.050;17.416;2023-04-07T05:14:32;102072.56;;;0.67;100.00
12666;BME280;58531;59.050;17.416;2023-04-07T05:16:58;102070.13;;;0.74;100.00
12666;BME280;58531;59.050;17.416;2023-04-07T05:19:26;102071.34;;;0.76;100.00
12666;BME280;58531;59.050;17.416;2023-04-07T05:21:54;102073.19;;;0.76;100.00
12666;BME280;58531;59.050;17.416;2023-04-07T05:24:20;102077.34;;;0.77;100.00
12666;BME280;58531;59.050;17.416;2023-04-07T05:26:48;102077.28;;;0.73;100.00
12666;BME280;58531;59.050;17.416;2023-04-07T05:29:15;102078.91;;;0.78;100.00
12666;BME280;58531;59.050;17.416;2023-04-07T05:31:42;102077.28;;;0.73;100.00
12666;BME280;58531;59.050;17.416;2023-04-07T05:34:09;102074.28;;;0.75;100.00
12666;BME280;58531;59.050;17.416;2023-04-07T05:36:35;102078.09;;;0.77;100.00
12666;BME280;58531;59.050;17.416;2023-04-07T05:39:02;102075.06;;;0.75;100.00
12666;BME280;58531;59.050;17.416;2023-04-07T05:41:29;102078.09;;;0.77;100.00
12666;BME280;58531;59.050;17.416;2023-04-07T05:43:57;102075.06;;;0.75;100.00
12666;BME280;58531;59.050;17.416;2023-04-07T05:46:24;102083.28;;;0.74;100.00
12666;BME280;58531;59.050;17.416;2023-04-07T05:48:51;102089.31;;;0.74;100.00
12666;BME280;58531;59.050;17.416;2023-04-07T05:51:18;102091.94;;;0.74;100.00
12666;BME280;58531;59.050;17.416;2023-04-07T05:53:45;102100.69;;;0.78;100.00
12666;BME280;58531;59.050;17.416;2023-04-07T05:56:11;102095.41;;;0.78;100.00
12666;BME280;58531;59.050;17.416;2023-04-07T05:58:38;102095.84;;;0.80;100.00
12666;BME280;58531;59.050;17.416;2023-04-07T06:01:06;102091.03;;;0.82;100.00
12666;BME280;58531;59.050;17.416;2023-04-07T06:03:33;102097.59;;;0.88;100.00
12666;BME280;58531;59.050;17.416;2023-04-07T06:06:00;102096.41;;;0.86;100.00
12666;BME280;58531;59.050;17.416;2023-04-07T06:08:27;102088.28;;;0.91;100.00
12666;BME280;58531;59.050;17.416;2023-04-07T06:10:53;102096.69;;;0.96;100.00
12666;BME280;58531;59.050;17.416;2023-04-07T06:13:20;102101.09;;;0.92;100.00
12666;BME280;58531;59.050;17.416;2023-04-07T06:15:47;102096.50;;;0.89;100.00
12666;BME280;58531;59.050;17.416;2023-04-07T06:18:15;102096.94;;;0.91;100.00
12666;BME280;58531;59.050;17.416;2023-04-07T06:20:42;102099.56;;;0.91;100.00
12666;BME280;58531;59.050;17.416;2023-04-07T06:23:09;102098.81;;;0.91;100.00
12666;BME280;58531;59.050;17.416;2023-04-07T06:25:36;102103.91;;;0.99;100.00
12666;BME280;58531;59.050;17.416;2023-04-07T06:28:02;102108.06;;;1.00;100.00
12666;BME280;58531;59.050;17.416;2023-04-07T06:30:30;102109.25;;;1.03;100.00
12666;BME280;58531;59.050;17.416;2023-04-07T06:32:56;102103.69;;;1.04;100.00
12666;BME280;58531;59.050;17.416;2023-04-07T06:35:24;102110.38;;;1.02;100.00
12666;BME280;58531;59.050;17.416;2023-04-07T06:37:52;102111.56;;;1.04;100.00
12666;BME280;58531;59.050;17.416;2023-04-07T06:40:19;102120.13;;;1.01;100.00
12666;BME280;58531;59.050;17.416;2023-04-07T06:42:45;102110.91;;;1.07;100.00
12666;BME280;58531;59.050;17.416;2023-04-07T06:45:12;102110.56;;;1.09;100.00
12666;BME280;58531;59.050;17.416;2023-04-07T06:47:39;102119.00;;;1.14;100.00
12666;BME280;58531;59.050;17.416;2023-04-07T06:50:07;102125.22;;;1.21;100.00
12666;BME280;58531;59.050;17.416;2023-04-07T06:52:35;102123.59;;;1.17;100.00
12666;BME280;58531;59.050;17.416;2023-04-07T06:55:02;102120.53;;;1.15;100.00
12666;BME280;58531;59.050;17.416;2023-04-07T06:57:29;102128.84;;;1.17;100.00
12666;BME280;58531;59.050;17.416;2023-04-07T06:59:55;102138.72;;;1.20;100.00
12666;BME280;58531;59.050;17.416;2023-04-07T07:02:22;102138.66;;;1.32;100.00
12666;BME280;58531;59.050;17.416;2023-04-07T07:04:49;102138.31;;;1.33;100.00
12666;BME280;58531;59.050;17.416;2023-04-07T07:07:16;102142.56;;;1.38;100.00
12666;BME280;58531;59.050;17.416;2023-04-07T07:09:44;102140.47;;;1.43;100.00
12666;BME280;58531;59.050;17.416;2023-04-07T07:12:11;102137.69;;;1.52;100.00
12666;BME280;58531;59.050;17.416;2023-04-07T07:14:39;102145.78;;;1.59;100.00
12666;BME280;58531;59.050;17.416;2023-04-07T07:17:06;102138.50;;;1.68;100.00
12666;BME280;58531;59.050;17.416;2023-04-07T07:19:33;102144.63;;;1.72;100.00
12666;BME280;58531;59.050;17.416;2023-04-07T07:22:00;102146.72;;;1.82;100.00
12666;BME280;58531;59.050;17.416;2023-04-07T07:24:28;102145.25;;;1.96;100.00
12666;BME280;58531;59.050;17.416;2023-04-07T07:26:59;102146.84;;;2.01;100.00
12666;BME280;58531;59.050;17.416;2023-04-07T07:29:27;102144.72;;;2.06;100.00
12666;BME280;58531;59.050;17.416;2023-04-07T07:31:54;102147.03;;;2.08;100.00
12666;BME280;58531;59.050;17.416;2023-04-07T07:34:21;102153.16;;;2.12;100.00
12666;BME280;58531;59.050;17.416;2023-04-07T07:36:48;102153.31;;;2.19;100.00
12666;BME280;58531;59.050;17.416;2023-04-07T07:39:14;102149.47;;;2.31;100.00
12666;BME280;58531;59.050;17.416;2023-04-07T07:41:41;102160.00;;;2.31;100.00
12666;BME280;58531;59.050;17.416;2023-04-07T07:44:09;102161.88;;;2.46;100.00
12666;BME280;58531;59.050;17.416;2023-04-07T07:46:36;102157.03;;;2.48;100.00
12666;BME280;58531;59.050;17.416;2023-04-07T07:49:03;102161.19;;;2.49;100.00
12666;BME280;58531;59.050;17.416;2023-04-07T07:51:30;102167.56;;;2.48;100.00
12666;BME280;58531;59.050;17.416;2023-04-07T07:53:57;102168.47;;;2.56;100.00
12666;BME280;58531;59.050;17.416;2023-04-07T07:56:24;102171.47;;;2.54;100.00
12666;BME280;58531;59.050;17.416;2023-04-07T07:58:50;102181.94;;;2.66;100.00
12666;BME280;58531;59.050;17.416;2023-04-07T08:01:18;102176.41;;;2.71;100.00
12666;BME280;58531;59.050;17.416;2023-04-07T08:03:45;102184.72;;;2.73;100.00
12666;BME280;58531;59.050;17.416;2023-04-07T08:06:12;102178.84;;;2.80;100.00
12666;BME280;58531;59.050;17.416;2023-04-07T08:08:39;102193.19;;;2.82;100.00
12666;BME280;58531;59.050;17.416;2023-04-07T08:11:06;102203.22;;;2.92;100.00
12666;BME280;58531;59.050;17.416;2023-04-07T08:13:33;102194.59;;;2.76;100.00
12666;BME280;58531;59.050;17.416;2023-04-07T08:15:59;102199.41;;;2.90;100.00
12666;BME280;58531;59.050;17.416;2023-04-07T08:18:28;102205.59;;;2.97;100.00
12666;BME280;58531;59.050;17.416;2023-04-07T08:20:54;102191.88;;;3.07;99.55
12666;BME280;58531;59.050;17.416;2023-04-07T08:23:21;102203.00;;;3.16;98.63
12666;BME280;58531;59.050;17.416;2023-04-07T08:25:48;102200.53;;;3.08;97.86
12666;BME280;58531;59.050;17.416;2023-04-07T08:28:15;102201.16;;;3.01;97.96
12666;BME280;58531;59.050;17.416;2023-04-07T08:30:42;102193.19;;;3.17;96.72
12666;BME280;58531;59.050;17.416;2023-04-07T08:33:09;102200.63;;;3.11;97.49
12666;BME280;58531;59.050;17.416;2023-04-07T08:35:37;102199.78;;;3.07;97.13
12666;BME280;58531;59.050;17.416;2023-04-07T08:38:03;102195.75;;;3.13;96.53
12666;BME280;58531;59.050;17.416;2023-04-07T08:40:32;102192.50;;;3.20;96.86
12666;BME280;58531;59.050;17.416;2023-04-07T08:43:00;102198.00;;;3.30;96.26
12666;BME280;58531;59.050;17.416;2023-04-07T08:45:29;102192.50;;;3.20;95.52
12666;BME280;58531;59.050;17.416;2023-04-07T08:47:58;102203.69;;;3.13;96.19
12666;BME280;58531;59.050;17.416;2023-04-07T08:50:29;102206.31;;;3.13;95.91
12666;BME280;58531;59.050;17.416;2023-04-07T08:52:59;102212.03;;;3.15;95.91
12666;BME280;58531;59.050;17.416;2023-04-07T08:55:31;102197.88;;;3.23;95.32
12666;BME280;58531;59.050;17.416;2023-04-07T08:57:58;102195.50;;;3.18;95.09
12666;BME280;58531;59.050;17.416;2023-04-07T09:00:25;102201.63;;;3.22;95.47
12666;BME280;58531;59.050;17.416;2023-04-07T09:02:52;102201.13;;;3.36;94.69
12666;BME280;58531;59.050;17.416;2023-04-07T09:05:19;102206.88;;;3.41;95.02
12666;BME280;58531;59.050;17.416;2023-04-07T09:07:49;102208.97;;;3.32;94.32
12666;BME280;58531;59.050;17.416;2023-04-07T09:10:17;102208.97;;;3.32;94.64
12666;BME280;58531;59.050;17.416;2023-04-07T09:12:44;102208.28;;;3.35;94.48
12666;BME280;58531;59.050;17.416;2023-04-07T09:15:11;102209.75;;;3.51;92.99
12666;BME280;58531;59.050;17.416;2023-04-07T09:17:38;102215.91;;;3.40;93.42
12666;BME280;58531;59.050;17.416;2023-04-07T09:20:05;102213.44;;;3.28;94.44
12666;BME280;58531;59.050;17.416;2023-04-07T09:22:37;102211.59;;;3.32;94.50
12666;BME280;58531;59.050;17.416;2023-04-07T09:25:12;102221.69;;;3.27;94.19
12666;BME280;58531;59.050;17.416;2023-04-07T09:27:40;102215.66;;;3.26;94.57
12666;BME280;58531;59.050;17.416;2023-04-07T09:30:11;102213.44;;;3.28;94.34
12666;BME280;58531;59.050;17.416;2023-04-07T09:32:39;102211.59;;;3.32;94.21
12666;BME280;58531;59.050;17.416;2023-04-07T09:35:07;102214.34;;;3.36;93.98
12666;BME280;58531;59.050;17.416;2023-04-07T09:37:34;102214.13;;;3.63;93.40
12666;BME280;58531;59.050;17.416;2023-04-07T09:40:02;102217.03;;;3.77;92.33
12666;BME280;58531;59.050;17.416;2023-04-07T09:42:29;102214.19;;;4.08;90.97
12666;BME280;58531;59.050;17.416;2023-04-07T09:44:58;102213.25;;;4.19;89.42
12666;BME280;58531;59.050;17.416;2023-04-07T09:47:26;102215.44;;;4.14;88.68
12666;BME280;58531;59.050;17.416;2023-04-07T09:49:54;102217.22;;;3.87;89.55
12666;BME280;58531;59.050;17.416;2023-04-07T09:52:23;102218.56;;;3.78;90.49
12666;BME280;58531;59.050;17.416;2023-04-07T09:54:50;102213.16;;;3.71;90.04
12666;BME280;58531;59.050;17.416;2023-04-07T09:57:19;102221.22;;;3.78;90.67
12666;BME280;58531;59.050;17.416;2023-04-07T09:59:47;102219.63;;;3.96;90.19
12666;BME280;58531;59.050;17.416;2023-04-07T10:02:17;102224.63;;;4.01;89.78
12666;BME280;58531;59.050;17.416;2023-04-07T10:04:44;102225.75;;;4.00;88.57
12666;BME280;58531;59.050;17.416;2023-04-07T10:07:11;102230.53;;;3.72;89.87
12666;BME280;58531;59.050;17.416;2023-04-07T10:09:38;102220.78;;;3.76;89.88
12666;BME280;58531;59.050;17.416;2023-04-07T10:12:05;102224.09;;;3.92;90.07
12666;BME280;58531;59.050;17.416;2023-04-07T10:14:33;102221.25;;;4.00;89.74
12666;BME280;58531;59.050;17.416;2023-04-07T10:17:02;102231.44;;;4.02;88.92
12666;BME280;58531;59.050;17.416;2023-04-07T10:19:32;102232.41;;;4.13;88.78
12666;BME280;58531;59.050;17.416;2023-04-07T10:22:01;102241.75;;;4.07;89.05
12666;BME280;58531;59.050;17.416;2023-04-07T10:24:38;102238.53;;;3.98;89.41
12666;BME280;58531;59.050;17.416;2023-04-07T10:27:13;102245.22;;;3.92;88.95
12666;BME280;58531;59.050;17.416;2023-04-07T10:29:44;102239.69;;;3.78;89.57
12666;BME280;58531;59.050;17.416;2023-04-07T10:32:13;102241.34;;;3.86;90.12
12666;BME280;58531;59.050;17.416;2023-04-07T10:34:57;102243.47;;;3.77;90.44
12666;BME280;58531;59.050;17.416;2023-04-07T10:37:25;102234.53;;;3.85;90.29
12666;BME280;58531;59.050;17.416;2023-04-07T10:42:52;102246.28;;;3.68;89.95
12666;BME280;58531;59.050;17.416;2023-04-07T10:48:21;102251.66;;;3.72;90.05
12666;BME280;58531;59.050;17.416;2023-04-07T10:51:12;102254.38;;;3.56;91.04
12666;BME280;58531;59.050;17.416;2023-04-07T10:57:20;102248.47;;;3.63;90.82
12666;BME280;58531;59.050;17.416;2023-04-07T11:00:13;102249.84;;;3.57;90.95
12666;BME280;58531;59.050;17.416;2023-04-07T11:02:40;102258.88;;;3.56;90.76
12666;BME280;58531;59.050;17.416;2023-04-07T11:05:07;102261.78;;;3.51;91.75
12666;BME280;58531;59.050;17.416;2023-04-07T11:07:50;102257.28;;;3.51;90.73
12666;BME280;58531;59.050;17.416;2023-04-07T11:10:19;102248.16;;;3.49;91.07
12666;BME280;58531;59.050;17.416;2023-04-07T11:13:04;102256.25;;;3.75;90.15
12666;BME280;58531;59.050;17.416;2023-04-07T11:15:32;102245.00;;;3.78;89.80
12666;BME280;58531;59.050;17.416;2023-04-07T11:18:10;102251.38;;;3.77;89.23
12666;BME280;58531;59.050;17.416;2023-04-07T11:20:45;102251.75;;;3.98;89.00
12666;BME280;58531;59.050;17.416;2023-04-07T11:23:14;102252.69;;;4.05;87.33
12666;BME280;58531;59.050;17.416;2023-04-07T11:25:43;102251.63;;;4.10;87.15
12666;BME280;58531;59.050;17.416;2023-04-07T11:28:11;102250.53;;;4.14;87.13
12666;BME280;58531;59.050;17.416;2023-04-07T11:30:44;102248.19;;;4.09;87.24
12666;BME280;58531;59.050;17.416;2023-04-07T11:33:15;102248.81;;;4.22;86.74
12666;BME280;58531;59.050;17.416;2023-04-07T11:35:53;102243.84;;;4.20;86.36
12666;BME280;58531;59.050;17.416;2023-04-07T11:38:23;102247.91;;;4.14;86.58
12666;BME280;58531;59.050;17.416;2023-04-07T11:40:50;102252.19;;;4.00;86.68
12666;BME280;58531;59.050;17.416;2023-04-07T11:43:19;102248.56;;;3.89;86.90
12666;BME280;58531;59.050;17.416;2023-04-07T11:45:47;102249.97;;;3.83;87.39
12666;BME280;58531;59.050;17.416;2023-04-07T11:48:29;102257.19;;;4.05;87.58
12666;BME280;58531;59.050;17.416;2023-04-07T11:50:56;102255.50;;;4.16;87.02
12666;BME280;58531;59.050;17.416;2023-04-07T11:53:29;102258.56;;;4.18;86.32
12666;BME280;58531;59.050;17.416;2023-04-07T11:56:01;102259.25;;;4.15;85.95
12666;BME280;58531;59.050;17.416;2023-04-07T11:58:28;102257.16;;;4.24;86.42
12666;BME280;58531;59.050;17.416;2023-04-07T12:00:55;102261.25;;;4.44;86.10
12666;BME280;58531;59.050;17.416;2023-04-07T12:03:23;102268.91;;;4.49;85.33
12666;BME280;58531;59.050;17.416;2023-04-07T12:05:49;102258.31;;;4.49;84.96
12666;BME280;58531;59.050;17.416;2023-04-07T12:08:16;102261.13;;;4.37;84.40
12666;BME280;58531;59.050;17.416;2023-04-07T12:10:45;102260.44;;;4.40;85.16
12666;BME280;58531;59.050;17.416;2023-04-07T12:13:13;102259.59;;;4.36;84.84
12666;BME280;58531;59.050;17.416;2023-04-07T12:15:40;102266.53;;;4.21;84.90
12666;BME280;58531;59.050;17.416;2023-04-07T12:18:06;102266.78;;;4.13;85.34
12666;BME280;58531;59.050;17.416;2023-04-07T12:20:33;102265.53;;;4.07;86.39
12666;BME280;58531;59.050;17.416;2023-04-07T12:23:00;102269.84;;;4.15;85.77
12666;BME280;58531;59.050;17.416;2023-04-07T12:25:27;102265.50;;;4.26;85.57
12666;BME280;58531;59.050;17.416;2023-04-07T12:27:57;102266.19;;;4.23;84.95
12666;BME280;58531;59.050;17.416;2023-04-07T12:30:23;102263.97;;;4.25;85.55
12666;BME280;58531;59.050;17.416;2023-04-07T12:32:50;102265.22;;;4.53;84.97
12666;BME280;58531;59.050;17.416;2023-04-07T12:35:17;102262.97;;;4.77;84.06
12666;BME280;58531;59.050;17.416;2023-04-07T12:37:44;102250.97;;;4.83;82.69
12666;BME280;58531;59.050;17.416;2023-04-07T12:40:11;102252.47;;;5.10;82.74
12666;BME280;58531;59.050;17.416;2023-04-07T12:42:40;102254.91;;;4.70;82.25
12666;BME280;58531;59.050;17.416;2023-04-07T12:45:09;102253.25;;;4.63;82.75
12666;BME280;58531;59.050;17.416;2023-04-07T12:47:35;102255.63;;;4.67;82.10
12666;BME280;58531;59.050;17.416;2023-04-07T12:50:02;102249.69;;;4.52;82.89
12666;BME280;58531;59.050;17.416;2023-04-07T12:52:29;102245.88;;;4.49;82.93
12666;BME280;58531;59.050;17.416;2023-04-07T12:54:56;102246.09;;;4.41;83.27
12666;BME280;58531;59.050;17.416;2023-04-07T12:57:24;102240.44;;;4.64;83.19